sensor_id;sensor_type;location;lat;lon;timestamp;temperature;humidity
69084;SHT31;56185;48.526;9.044;2023-08-31T00:02:24;15.24;86.27
69084;SHT31;56185;48.526;9.044;2023-08-31T00:04:51;15.27;85.29
69084;SHT31;56185;48.526;9.044;2023-08-31T00:07:17;15.20;85.63
69084;SHT31;56185;48.526;9.044;2023-08-31T00:09:42;15.27;84.33
69084;SHT31;56185;48.526;9.044;2023-08-31T00:12:07;15.19;85.00
69084;SHT31;56185;48.526;9.044;2023-08-31T00:14:33;15.17;86.11
69084;SHT31;56185;48.526;9.044;2023-08-31T00:16:58;15.16;85.18
69084;SHT31;56185;48.526;9.044;2023-08-31T00:19:23;15.08;86.81
69084;SHT31;56185;48.526;9.044;2023-08-31T00:21:48;15.20;86.30
69084;SHT31;56185;48.526;9.044;2023-08-31T00:24:14;15.14;85.60
69084;SHT31;56185;48.526;9.044;2023-08-31T00:26:39;15.13;84.57
69084;SHT31;56185;48.526;9.044;2023-08-31T00:29:04;15.14;85.58
69084;SHT31;56185;48.526;9.044;2023-08-31T00:31:29;15.10;86.17
69084;SHT31;56185;48.526;9.044;2023-08-31T00:33:55;15.04;85.68
69084;SHT31;56185;48.526;9.044;2023-08-31T00:36:20;15.04;85.81
69084;SHT31;56185;48.526;9.044;2023-08-31T00:38:45;14.96;86.54
69084;SHT31;56185;48.526;9.044;2023-08-31T00:41:12;14.87;86.82
69084;SHT31;56185;48.526;9.044;2023-08-31T00:43:37;14.85;86.72
69084;SHT31;56185;48.526;9.044;2023-08-31T00:46:02;14.79;88.21
69084;SHT31;56185;48.526;9.044;2023-08-31T00:48:28;14.73;87.70
69084;SHT31;56185;48.526;9.044;2023-08-31T00:50:53;14.83;87.19
69084;SHT31;56185;48.526;9.044;2023-08-31T00:53:19;14.75;88.09
69084;SHT31;56185;48.526;9.044;2023-08-31T00:55:45;14.71;87.35
69084;SHT31;56185;48.526;9.044;2023-08-31T00:58:10;14.72;87.58
69084;SHT31;56185;48.526;9.044;2023-08-31T01:09:34;14.66;87.85
69084;SHT31;56185;48.526;9.044;2023-08-31T01:12:10;14.69;87.44
69084;SHT31;56185;48.526;9.044;2023-08-31T01:14:43;14.68;88.20
69084;SHT31;56185;48.526;9.044;2023-08-31T01:17:12;14.73;87.36
69084;SHT31;56185;48.526;9.044;2023-08-31T01:19:47;14.68;87.04
69084;SHT31;56185;48.526;9.044;2023-08-31T01:22:36;14.65;88.03
69084;SHT31;56185;48.526;9.044;2023-08-31T01:25:03;14.62;89.06
69084;SHT31;56185;48.526;9.044;2023-08-31T01:27:32;14.66;87.69
69084;SHT31;56185;48.526;9.044;2023-08-31T01:29:57;14.56;88.09
69084;SHT31;56185;48.526;9.044;2023-08-31T01:32:23;14.62;87.88
69084;SHT31;56185;48.526;9.044;2023-08-31T01:34:50;14.69;87.46
69084;SHT31;56185;48.526;9.044;2023-08-31T01:37:26;14.54;88.07
69084;SHT31;56185;48.526;9.044;2023-08-31T01:39:56;14.38;88.04
69084;SHT31;56185;48.526;9.044;2023-08-31T01:42:25;14.34;88.14
69084;SHT31;56185;48.526;9.044;2023-08-31T01:44:51;14.35;88.12
69084;SHT31;56185;48.526;9.044;2023-08-31T01:47:17;14.36;88.44
69084;SHT31;56185;48.526;9.044;2023-08-31T01:49:42;14.38;87.87
69084;SHT31;56185;48.526;9.044;2023-08-31T01:52:07;14.61;87.29
69084;SHT31;56185;48.526;9.044;2023-08-31T01:54:33;14.48;87.37
69084;SHT31;56185;48.526;9.044;2023-08-31T01:56:58;14.55;87.05
69084;SHT31;56185;48.526;9.044;2023-08-31T01:59:24;14.38;87.78
69084;SHT31;56185;48.526;9.044;2023-08-31T02:01:49;14.39;87.33
69084;SHT31;56185;48.526;9.044;2023-08-31T02:04:14;14.32;87.38
69084;SHT31;56185;48.526;9.044;2023-08-31T02:06:40;14.32;87.08
69084;SHT31;56185;48.526;9.044;2023-08-31T02:09:05;14.25;87.49
69084;SHT31;56185;48.526;9.044;2023-08-31T02:11:31;14.26;87.32
69084;SHT31;56185;48.526;9.044;2023-08-31T02:13:56;14.28;87.57
69084;SHT31;56185;48.526;9.044;2023-08-31T02:16:21;14.13;87.31
69084;SHT31;56185;48.526;9.044;2023-08-31T02:18:46;14.08;87.31
69084;SHT31;56185;48.526;9.044;2023-08-31T02:21:12;14.15;87.13
69084;SHT31;56185;48.526;9.044;2023-08-31T02:23:38;14.36;86.54
69084;SHT31;56185;48.526;9.044;2023-08-31T02:26:03;14.32;86.84
69084;SHT31;56185;48.526;9.044;2023-08-31T02:28:29;14.18;87.35
69084;SHT31;56185;48.526;9.044;2023-08-31T02:30:58;14.21;87.16
69084;SHT31;56185;48.526;9.044;2023-08-31T02:33:24;14.21;86.95
69084;SHT31;56185;48.526;9.044;2023-08-31T02:35:50;14.13;87.73
69084;SHT31;56185;48.526;9.044;2023-08-31T02:38:18;14.22;86.95
69084;SHT31;56185;48.526;9.044;2023-08-31T02:40:46;14.13;87.64
69084;SHT31;56185;48.526;9.044;2023-08-31T02:43:12;14.18;87.34
69084;SHT31;56185;48.526;9.044;2023-08-31T02:45:38;14.13;88.08
69084;SHT31;56185;48.526;9.044;2023-08-31T02:48:06;14.00;88.35
69084;SHT31;56185;48.526;9.044;2023-08-31T03:07:03;14.03;87.83
69084;SHT31;56185;48.526;9.044;2023-08-31T05:57:09;14.56;85.74
69084;SHT31;56185;48.526;9.044;2023-08-31T07:20:13;15.17;82.70
69084;SHT31;56185;48.526;9.044;2023-08-31T07:22:38;15.26;82.64
69084;SHT31;56185;48.526;9.044;2023-08-31T07:25:04;15.33;82.65
69084;SHT31;56185;48.526;9.044;2023-08-31T07:27:30;15.31;82.32
69084;SHT31;56185;48.526;9.044;2023-08-31T07:29:55;15.44;83.02
69084;SHT31;56185;48.526;9.044;2023-08-31T07:32:21;15.47;82.76
69084;SHT31;56185;48.526;9.044;2023-08-31T07:34:46;15.41;79.72
69084;SHT31;56185;48.526;9.044;2023-08-31T07:37:13;15.51;81.51
69084;SHT31;56185;48.526;9.044;2023-08-31T07:39:39;15.51;80.93
69084;SHT31;56185;48.526;9.044;2023-08-31T07:42:09;15.50;78.12
69084;SHT31;56185;48.526;9.044;2023-08-31T07:44:37;15.57;77.43
69084;SHT31;56185;48.526;9.044;2023-08-31T07:47:02;15.47;76.13
69084;SHT31;56185;48.526;9.044;2023-08-31T07:49:28;15.58;74.80
69084;SHT31;56185;48.526;9.044;2023-08-31T07:51:53;15.59;75.28
69084;SHT31;56185;48.526;9.044;2023-08-31T07:54:22;15.74;75.37
69084;SHT31;56185;48.526;9.044;2023-08-31T07:56:48;15.79;76.38
69084;SHT31;56185;48.526;9.044;2023-08-31T07:59:17;15.88;75.41
69084;SHT31;56185;48.526;9.044;2023-08-31T08:01:43;16.01;73.95
69084;SHT31;56185;48.526;9.044;2023-08-31T08:04:14;16.05;74.44
69084;SHT31;56185;48.526;9.044;2023-08-31T08:06:45;16.12;73.98
69084;SHT31;56185;48.526;9.044;2023-08-31T08:09:10;16.20;71.66
69084;SHT31;56185;48.526;9.044;2023-08-31T08:11:37;16.23;72.16
69084;SHT31;56185;48.526;9.044;2023-08-31T08:14:05;16.29;71.86
69084;SHT31;56185;48.526;9.044;2023-08-31T08:16:35;16.33;72.68
69084;SHT31;56185;48.526;9.044;2023-08-31T08:19:13;16.44;70.13
69084;SHT31;56185;48.526;9.044;2023-08-31T08:21:56;16.44;69.21
69084;SHT31;56185;48.526;9.044;2023-08-31T08:27:42;16.65;66.11
69084;SHT31;56185;48.526;9.044;2023-08-31T08:30:07;16.63;67.90
69084;SHT31;56185;48.526;9.044;2023-08-31T08:32:50;16.77;68.23
69084;SHT31;56185;48.526;9.044;2023-08-31T08:44:41;17.01;63.65
69084;SHT31;56185;48.526;9.044;2023-08-31T08:47:18;17.05;64.89
69084;SHT31;56185;48.526;9.044;2023-08-31T09:00:55;17.07;64.87
69084;SHT31;56185;48.526;9.044;2023-08-31T09:03:25;17.07;65.60
69084;SHT31;56185;48.526;9.044;2023-08-31T09:05:53;17.02;64.90
69084;SHT31;56185;48.526;9.044;2023-08-31T09:08:26;17.16;62.08
69084;SHT31;56185;48.526;9.044;2023-08-31T09:11:20;17.29;60.66
69084;SHT31;56185;48.526;9.044;2023-08-31T09:13:45;17.38;61.83
69084;SHT31;56185;48.526;9.044;2023-08-31T09:16:26;17.43;60.13
69084;SHT31;56185;48.526;9.044;2023-08-31T09:18:51;17.50;59.99
69084;SHT31;56185;48.526;9.044;2023-08-31T09:21:17;17.43;60.54
69084;SHT31;56185;48.526;9.044;2023-08-31T09:23:47;17.36;58.27
69084;SHT31;56185;48.526;9.044;2023-08-31T09:26:12;17.38;61.50
69084;SHT31;56185;48.526;9.044;2023-08-31T09:28:40;17.47;60.12
69084;SHT31;56185;48.526;9.044;2023-08-31T09:31:07;17.50;58.04
69084;SHT31;56185;48.526;9.044;2023-08-31T09:33:34;17.57;58.82
69084;SHT31;56185;48.526;9.044;2023-08-31T09:36:00;17.71;57.07
69084;SHT31;56185;48.526;9.044;2023-08-31T09:38:25;17.89;56.31
69084;SHT31;56185;48.526;9.044;2023-08-31T09:40:50;17.89;55.59
69084;SHT31;56185;48.526;9.044;2023-08-31T09:43:23;17.90;53.94
69084;SHT31;56185;48.526;9.044;2023-08-31T09:45:48;17.87;53.58
69084;SHT31;56185;48.526;9.044;2023-08-31T09:48:15;17.89;53.42
69084;SHT31;56185;48.526;9.044;2023-08-31T09:50:43;17.86;54.42
69084;SHT31;56185;48.526;9.044;2023-08-31T09:53:10;17.80;53.60
69084;SHT31;56185;48.526;9.044;2023-08-31T09:55:36;17.84;53.25
69084;SHT31;56185;48.526;9.044;2023-08-31T09:58:05;17.69;53.35
69084;SHT31;56185;48.526;9.044;2023-08-31T10:00:32;17.80;55.82
69084;SHT31;56185;48.526;9.044;2023-08-31T10:03:02;18.05;53.15
69084;SHT31;56185;48.526;9.044;2023-08-31T10:05:28;18.00;53.75
69084;SHT31;56185;48.526;9.044;2023-08-31T10:07:54;18.07;54.11
69084;SHT31;56185;48.526;9.044;2023-08-31T10:10:19;18.22;52.41
69084;SHT31;56185;48.526;9.044;2023-08-31T10:12:48;18.47;53.00
69084;SHT31;56185;48.526;9.044;2023-08-31T10:15:14;18.63;52.50
69084;SHT31;56185;48.526;9.044;2023-08-31T10:17:40;18.75;52.95
69084;SHT31;56185;48.526;9.044;2023-08-31T10:20:07;18.90;52.92
69084;SHT31;56185;48.526;9.044;2023-08-31T10:22:33;19.16;52.74
69084;SHT31;56185;48.526;9.044;2023-08-31T10:24:59;19.11;53.01
69084;SHT31;56185;48.526;9.044;2023-08-31T10:27:25;18.96;51.80
69084;SHT31;56185;48.526;9.044;2023-08-31T10:29:50;18.80;47.83
69084;SHT31;56185;48.526;9.044;2023-08-31T10:32:18;18.72;49.47
69084;SHT31;56185;48.526;9.044;2023-08-31T10:34:44;18.83;51.46
69084;SHT31;56185;48.526;9.044;2023-08-31T10:37:28;18.82;52.41
69084;SHT31;56185;48.526;9.044;2023-08-31T10:40:06;18.77;48.25
69084;SHT31;56185;48.526;9.044;2023-08-31T10:42:32;18.85;49.81
69084;SHT31;56185;48.526;9.044;2023-08-31T10:45:05;18.85;49.84
69084;SHT31;56185;48.526;9.044;2023-08-31T10:47:41;19.10;49.51
69084;SHT31;56185;48.526;9.044;2023-08-31T10:50:17;19.27;47.76
69084;SHT31;56185;48.526;9.044;2023-08-31T10:52:44;19.55;49.51
69084;SHT31;56185;48.526;9.044;2023-08-31T10:55:09;19.75;49.69
69084;SHT31;56185;48.526;9.044;2023-08-31T10:57:35;19.98;51.05
69084;SHT31;56185;48.526;9.044;2023-08-31T11:00:00;19.99;47.52
69084;SHT31;56185;48.526;9.044;2023-08-31T11:02:42;19.88;47.44
69084;SHT31;56185;48.526;9.044;2023-08-31T11:07:37;19.83;49.19
69084;SHT31;56185;48.526;9.044;2023-08-31T11:12:37;19.86;49.86
69084;SHT31;56185;48.526;9.044;2023-08-31T11:15:03;19.96;47.61
69084;SHT31;56185;48.526;9.044;2023-08-31T11:17:28;20.22;47.56
69084;SHT31;56185;48.526;9.044;2023-08-31T11:19:53;20.13;48.24
69084;SHT31;56185;48.526;9.044;2023-08-31T11:22:19;20.13;46.88
69084;SHT31;56185;48.526;9.044;2023-08-31T11:24:44;20.00;49.27
69084;SHT31;56185;48.526;9.044;2023-08-31T11:27:09;20.04;47.51
69084;SHT31;56185;48.526;9.044;2023-08-31T11:29:44;20.02;47.52
69084;SHT31;56185;48.526;9.044;2023-08-31T11:32:09;20.09;48.83
69084;SHT31;56185;48.526;9.044;2023-08-31T11:34:34;20.25;48.40
69084;SHT31;56185;48.526;9.044;2023-08-31T11:36:59;20.41;48.93
69084;SHT31;56185;48.526;9.044;2023-08-31T11:39:25;20.61;48.04
69084;SHT31;56185;48.526;9.044;2023-08-31T11:41:51;20.53;47.45
69084;SHT31;56185;48.526;9.044;2023-08-31T11:44:16;20.41;46.69
69084;SHT31;56185;48.526;9.044;2023-08-31T11:46:43;20.33;49.14
69084;SHT31;56185;48.526;9.044;2023-08-31T11:49:10;20.12;49.73
69084;SHT31;56185;48.526;9.044;2023-08-31T11:51:38;20.19;49.30
69084;SHT31;56185;48.526;9.044;2023-08-31T11:54:05;20.17;48.53
69084;SHT31;56185;48.526;9.044;2023-08-31T11:56:43;20.39;48.65
69084;SHT31;56185;48.526;9.044;2023-08-31T11:59:14;20.48;46.73
69084;SHT31;56185;48.526;9.044;2023-08-31T12:01:40;20.77;48.60
69084;SHT31;56185;48.526;9.044;2023-08-31T12:04:21;20.87;45.97
69084;SHT31;56185;48.526;9.044;2023-08-31T12:06:47;20.81;45.79
69084;SHT31;56185;48.526;9.044;2023-08-31T12:09:12;20.73;44.07
69084;SHT31;56185;48.526;9.044;2023-08-31T12:11:38;20.73;45.23
69084;SHT31;56185;48.526;9.044;2023-08-31T12:14:17;20.90;46.64
69084;SHT31;56185;48.526;9.044;2023-08-31T12:16:43;20.84;47.70
69084;SHT31;56185;48.526;9.044;2023-08-31T12:19:09;20.85;47.51
69084;SHT31;56185;48.526;9.044;2023-08-31T12:21:34;20.77;48.14
69084;SHT31;56185;48.526;9.044;2023-08-31T12:23:59;20.66;47.95
69084;SHT31;56185;48.526;9.044;2023-08-31T12:26:27;20.68;46.87
69084;SHT31;56185;48.526;9.044;2023-08-31T12:28:53;20.67;47.90
69084;SHT31;56185;48.526;9.044;2023-08-31T12:31:18;20.51;48.25
69084;SHT31;56185;48.526;9.044;2023-08-31T12:33:43;20.50;47.83
69084;SHT31;56185;48.526;9.044;2023-08-31T12:36:08;20.46;47.15
69084;SHT31;56185;48.526;9.044;2023-08-31T12:38:34;20.40;48.56
69084;SHT31;56185;48.526;9.044;2023-08-31T12:40:59;20.67;46.38
69084;SHT31;56185;48.526;9.044;2023-08-31T12:43:24;20.94;45.44
69084;SHT31;56185;48.526;9.044;2023-08-31T12:45:50;20.90;47.20
69084;SHT31;56185;48.526;9.044;2023-08-31T12:48:15;21.02;46.38
69084;SHT31;56185;48.526;9.044;2023-08-31T12:50:40;21.05;45.92
69084;SHT31;56185;48.526;9.044;2023-08-31T12:53:05;21.39;46.92
69084;SHT31;56185;48.526;9.044;2023-08-31T12:55:31;21.56;46.87
69084;SHT31;56185;48.526;9.044;2023-08-31T12:57:56;21.69;45.73
69084;SHT31;56185;48.526;9.044;2023-08-31T13:00:21;21.67;46.10
69084;SHT31;56185;48.526;9.044;2023-08-31T13:02:46;21.66;45.01
69084;SHT31;56185;48.526;9.044;2023-08-31T13:05:12;21.43;46.61
69084;SHT31;56185;48.526;9.044;2023-08-31T13:07:37;21.12;46.04
69084;SHT31;56185;48.526;9.044;2023-08-31T13:10:04;21.41;46.85
69084;SHT31;56185;48.526;9.044;2023-08-31T13:12:33;21.31;45.61
69084;SHT31;56185;48.526;9.044;2023-08-31T13:14:59;21.24;46.01
69084;SHT31;56185;48.526;9.044;2023-08-31T13:17:24;21.28;46.40
69084;SHT31;56185;48.526;9.044;2023-08-31T13:19:50;21.19;47.03
69084;SHT31;56185;48.526;9.044;2023-08-31T13:22:15;21.02;46.22
69084;SHT31;56185;48.526;9.044;2023-08-31T13:24:40;20.94;47.77
69084;SHT31;56185;48.526;9.044;2023-08-31T13:27:06;20.96;46.96
69084;SHT31;56185;48.526;9.044;2023-08-31T13:29:31;20.94;46.91
69084;SHT31;56185;48.526;9.044;2023-08-31T13:31:56;21.18;46.29
69084;SHT31;56185;48.526;9.044;2023-08-31T13:34:21;21.32;47.38
69084;SHT31;56185;48.526;9.044;2023-08-31T13:36:46;21.38;47.94
69084;SHT31;56185;48.526;9.044;2023-08-31T13:39:12;21.36;45.71
69084;SHT31;56185;48.526;9.044;2023-08-31T13:41:37;21.32;45.73
69084;SHT31;56185;48.526;9.044;2023-08-31T13:44:02;21.01;45.45
69084;SHT31;56185;48.526;9.044;2023-08-31T13:46:28;21.08;48.61
69084;SHT31;56185;48.526;9.044;2023-08-31T13:48:53;21.02;47.47
69084;SHT31;56185;48.526;9.044;2023-08-31T13:51:18;21.02;46.67
69084;SHT31;56185;48.526;9.044;2023-08-31T13:53:43;20.94;47.70
69084;SHT31;56185;48.526;9.044;2023-08-31T13:56:09;20.85;47.91
69084;SHT31;56185;48.526;9.044;2023-08-31T13:58:34;20.94;48.65
69084;SHT31;56185;48.526;9.044;2023-08-31T14:01:02;20.85;48.68
69084;SHT31;56185;48.526;9.044;2023-08-31T14:03:27;20.64;48.47
69084;SHT31;56185;48.526;9.044;2023-08-31T14:05:52;20.64;48.71
69084;SHT31;56185;48.526;9.044;2023-08-31T14:08:17;20.60;49.13
69084;SHT31;56185;48.526;9.044;2023-08-31T14:10:43;20.66;49.67
69084;SHT31;56185;48.526;9.044;2023-08-31T14:13:08;20.61;50.08
69084;SHT31;56185;48.526;9.044;2023-08-31T14:15:33;20.63;49.41
69084;SHT31;56185;48.526;9.044;2023-08-31T14:17:58;20.58;49.30
69084;SHT31;56185;48.526;9.044;2023-08-31T14:20:24;20.44;49.12
69084;SHT31;56185;48.526;9.044;2023-08-31T14:22:49;20.60;49.21
69084;SHT31;56185;48.526;9.044;2023-08-31T14:25:15;20.51;48.29
69084;SHT31;56185;48.526;9.044;2023-08-31T14:27:40;20.80;49.69
69084;SHT31;56185;48.526;9.044;2023-08-31T14:30:06;20.99;49.36
69084;SHT31;56185;48.526;9.044;2023-08-31T14:32:31;21.08;49.38
69084;SHT31;56185;48.526;9.044;2023-08-31T14:34:57;21.02;47.99
69084;SHT31;56185;48.526;9.044;2023-08-31T14:37:22;21.01;47.99
69084;SHT31;56185;48.526;9.044;2023-08-31T14:39:47;20.84;48.11
69084;SHT31;56185;48.526;9.044;2023-08-31T14:42:13;20.99;48.60
69084;SHT31;56185;48.526;9.044;2023-08-31T14:44:38;21.06;48.89
69084;SHT31;56185;48.526;9.044;2023-08-31T14:47:03;21.02;47.44
69084;SHT31;56185;48.526;9.044;2023-08-31T14:49:29;20.96;48.87
69084;SHT31;56185;48.526;9.044;2023-08-31T14:51:54;21.01;49.54
69084;SHT31;56185;48.526;9.044;2023-08-31T14:54:19;21.04;50.20
69084;SHT31;56185;48.526;9.044;2023-08-31T14:56:45;21.24;48.65
69084;SHT31;56185;48.526;9.044;2023-08-31T14:59:10;21.21;50.07
69084;SHT31;56185;48.526;9.044;2023-08-31T15:01:35;21.38;48.95
69084;SHT31;56185;48.526;9.044;2023-08-31T15:04:00;21.26;49.07
69084;SHT31;56185;48.526;9.044;2023-08-31T15:06:26;21.01;49.57
69084;SHT31;56185;48.526;9.044;2023-08-31T15:08:51;20.92;49.29
69084;SHT31;56185;48.526;9.044;2023-08-31T15:11:16;20.84;49.37
69084;SHT31;56185;48.526;9.044;2023-08-31T15:13:42;20.75;49.05
69084;SHT31;56185;48.526;9.044;2023-08-31T15:16:07;20.63;50.49
69084;SHT31;56185;48.526;9.044;2023-08-31T15:18:32;20.66;51.57
69084;SHT31;56185;48.526;9.044;2023-08-31T15:20:58;20.63;51.80
69084;SHT31;56185;48.526;9.044;2023-08-31T15:23:23;20.44;52.43
69084;SHT31;56185;48.526;9.044;2023-08-31T15:25:48;20.47;52.12
69084;SHT31;56185;48.526;9.044;2023-08-31T15:28:14;20.56;52.08
69084;SHT31;56185;48.526;9.044;2023-08-31T15:30:39;20.51;52.99
69084;SHT31;56185;48.526;9.044;2023-08-31T15:33:05;20.41;53.62
69084;SHT31;56185;48.526;9.044;2023-08-31T15:35:31;20.39;53.80
69084;SHT31;56185;48.526;9.044;2023-08-31T15:37:57;20.36;54.37
69084;SHT31;56185;48.526;9.044;2023-08-31T15:40:23;20.27;54.89
69084;SHT31;56185;48.526;9.044;2023-08-31T15:42:48;20.29;54.44
69084;SHT31;56185;48.526;9.044;2023-08-31T15:45:14;20.20;54.61
69084;SHT31;56185;48.526;9.044;2023-08-31T15:47:39;20.16;54.57
69084;SHT31;56185;48.526;9.044;2023-08-31T15:50:05;20.13;54.92
69084;SHT31;56185;48.526;9.044;2023-08-31T15:52:30;20.17;55.05
69084;SHT31;56185;48.526;9.044;2023-08-31T15:54:56;20.13;54.64
69084;SHT31;56185;48.526;9.044;2023-08-31T15:57:21;20.13;53.71
69084;SHT31;56185;48.526;9.044;2023-08-31T15:59:46;20.13;53.86
69084;SHT31;56185;48.526;9.044;2023-08-31T16:02:11;20.04;55.31
69084;SHT31;56185;48.526;9.044;2023-08-31T16:04:37;20.22;54.00
69084;SHT31;56185;48.526;9.044;2023-08-31T16:07:02;20.13;55.02
69084;SHT31;56185;48.526;9.044;2023-08-31T16:09:27;20.15;54.96
69084;SHT31;56185;48.526;9.044;2023-08-31T16:11:53;20.05;55.58
69084;SHT31;56185;48.526;9.044;2023-08-31T16:14:18;20.15;55.22
69084;SHT31;56185;48.526;9.044;2023-08-31T16:16:43;20.10;55.06
69084;SHT31;56185;48.526;9.044;2023-08-31T16:19:08;20.05;55.04
69084;SHT31;56185;48.526;9.044;2023-08-31T16:21:34;20.06;55.75
69084;SHT31;56185;48.526;9.044;2023-08-31T16:23:59;20.08;56.53
69084;SHT31;56185;48.526;9.044;2023-08-31T16:26:24;20.05;56.85
69084;SHT31;56185;48.526;9.044;2023-08-31T16:28:49;20.10;56.15
69084;SHT31;56185;48.526;9.044;2023-08-31T16:31:14;19.95;56.70
69084;SHT31;56185;48.526;9.044;2023-08-31T16:33:40;19.99;56.42
69084;SHT31;56185;48.526;9.044;2023-08-31T16:36:05;19.96;56.51
69084;SHT31;56185;48.526;9.044;2023-08-31T16:38:30;19.89;57.17
69084;SHT31;56185;48.526;9.044;2023-08-31T16:40:56;19.85;58.78
69084;SHT31;56185;48.526;9.044;2023-08-31T16:43:21;19.95;56.94
69084;SHT31;56185;48.526;9.044;2023-08-31T16:45:47;20.04;56.96
69084;SHT31;56185;48.526;9.044;2023-08-31T16:48:12;19.98;56.60
69084;SHT31;56185;48.526;9.044;2023-08-31T16:50:37;19.81;58.28
69084;SHT31;56185;48.526;9.044;2023-08-31T16:53:03;19.82;57.71
69084;SHT31;56185;48.526;9.044;2023-08-31T16:55:29;19.86;58.19
69084;SHT31;56185;48.526;9.044;2023-08-31T16:57:55;19.78;57.34
69084;SHT31;56185;48.526;9.044;2023-08-31T17:00:21;19.78;57.89
69084;SHT31;56185;48.526;9.044;2023-08-31T17:02:46;19.61;58.46
69084;SHT31;56185;48.526;9.044;2023-08-31T17:05:11;19.65;58.72
69084;SHT31;56185;48.526;9.044;2023-08-31T17:07:36;19.64;59.63
69084;SHT31;56185;48.526;9.044;2023-08-31T17:10:02;19.64;60.18
69084;SHT31;56185;48.526;9.044;2023-08-31T17:12:27;19.69;59.75
69084;SHT31;56185;48.526;9.044;2023-08-31T17:14:52;19.81;58.93
69084;SHT31;56185;48.526;9.044;2023-08-31T17:17:17;19.74;59.66
69084;SHT31;56185;48.526;9.044;2023-08-31T17:19:42;19.62;61.35
69084;SHT31;56185;48.526;9.044;2023-08-31T17:22:08;19.55;61.62
69084;SHT31;56185;48.526;9.044;2023-08-31T17:24:33;19.53;61.76
69084;SHT31;56185;48.526;9.044;2023-08-31T17:26:58;19.39;62.83
69084;SHT31;56185;48.526;9.044;2023-08-31T17:29:24;19.30;63.09
69084;SHT31;56185;48.526;9.044;2023-08-31T17:31:49;19.23;63.65
69084;SHT31;56185;48.526;9.044;2023-08-31T17:34:14;19.21;64.12
69084;SHT31;56185;48.526;9.044;2023-08-31T17:36:40;19.11;64.90
69084;SHT31;56185;48.526;9.044;2023-08-31T17:39:05;19.11;65.08
69084;SHT31;56185;48.526;9.044;2023-08-31T17:41:30;19.10;65.28
69084;SHT31;56185;48.526;9.044;2023-08-31T17:43:55;19.11;65.22
69084;SHT31;56185;48.526;9.044;2023-08-31T17:46:20;18.97;64.47
69084;SHT31;56185;48.526;9.044;2023-08-31T17:48:46;18.95;64.75
69084;SHT31;56185;48.526;9.044;2023-08-31T17:51:11;18.93;65.33
69084;SHT31;56185;48.526;9.044;2023-08-31T17:53:36;19.04;64.29
69084;SHT31;56185;48.526;9.044;2023-08-31T17:56:01;19.00;63.78
69084;SHT31;56185;48.526;9.044;2023-08-31T17:58:27;18.82;64.33
69084;SHT31;56185;48.526;9.044;2023-08-31T18:00:52;18.79;64.35
69084;SHT31;56185;48.526;9.044;2023-08-31T18:03:17;18.82;65.02
69084;SHT31;56185;48.526;9.044;2023-08-31T18:05:51;18.60;65.35
69084;SHT31;56185;48.526;9.044;2023-08-31T18:08:19;18.59;66.00
69084;SHT31;56185;48.526;9.044;2023-08-31T18:10:45;18.51;66.33
69084;SHT31;56185;48.526;9.044;2023-08-31T18:13:10;18.45;66.01
69084;SHT31;56185;48.526;9.044;2023-08-31T18:15:36;18.35;66.69
69084;SHT31;56185;48.526;9.044;2023-08-31T18:18:02;18.25;66.30
69084;SHT31;56185;48.526;9.044;2023-08-31T18:20:27;18.34;66.50
69084;SHT31;56185;48.526;9.044;2023-08-31T18:22:52;18.31;66.94
69084;SHT31;56185;48.526;9.044;2023-08-31T18:25:18;18.35;67.48
69084;SHT31;56185;48.526;9.044;2023-08-31T18:27:43;18.31;67.43
69084;SHT31;56185;48.526;9.044;2023-08-31T18:30:08;18.24;67.14
69084;SHT31;56185;48.526;9.044;2023-08-31T18:32:34;18.14;67.96
69084;SHT31;56185;48.526;9.044;2023-08-31T18:34:59;18.17;68.51
69084;SHT31;56185;48.526;9.044;2023-08-31T18:37:25;18.17;68.58
69084;SHT31;56185;48.526;9.044;2023-08-31T18:39:50;18.18;68.51
69084;SHT31;56185;48.526;9.044;2023-08-31T18:42:15;18.10;68.15
69084;SHT31;56185;48.526;9.044;2023-08-31T18:44:40;18.05;69.56
69084;SHT31;56185;48.526;9.044;2023-08-31T18:47:05;18.02;68.73
69084;SHT31;56185;48.526;9.044;2023-08-31T18:49:31;17.90;69.44
69084;SHT31;56185;48.526;9.044;2023-08-31T18:51:57;17.96;68.89
69084;SHT31;56185;48.526;9.044;2023-08-31T18:54:22;17.97;68.48
69084;SHT31;56185;48.526;9.044;2023-08-31T18:56:47;17.86;69.84
69084;SHT31;56185;48.526;9.044;2023-08-31T18:59:13;17.84;68.91
69084;SHT31;56185;48.526;9.044;2023-08-31T19:01:38;17.83;69.38
69084;SHT31;56185;48.526;9.044;2023-08-31T19:04:03;17.83;69.38
69084;SHT31;56185;48.526;9.044;2023-08-31T19:06:29;17.81;69.26
69084;SHT31;56185;48.526;9.044;2023-08-31T19:08:54;17.91;69.29
69084;SHT31;56185;48.526;9.044;2023-08-31T19:11:19;17.76;69.68
69084;SHT31;56185;48.526;9.044;2023-08-31T19:13:45;17.71;70.13
69084;SHT31;56185;48.526;9.044;2023-08-31T19:16:10;17.71;70.82
69084;SHT31;56185;48.526;9.044;2023-08-31T19:18:38;17.67;70.40
69084;SHT31;56185;48.526;9.044;2023-08-31T19:21:03;17.65;71.11
69084;SHT31;56185;48.526;9.044;2023-08-31T19:23:28;17.60;71.08
69084;SHT31;56185;48.526;9.044;2023-08-31T19:26:04;17.65;71.51
69084;SHT31;56185;48.526;9.044;2023-08-31T19:28:29;17.62;71.98
69084;SHT31;56185;48.526;9.044;2023-08-31T19:30:55;17.73;71.42
69084;SHT31;56185;48.526;9.044;2023-08-31T19:33:20;17.70;71.29
69084;SHT31;56185;48.526;9.044;2023-08-31T19:35:45;17.76;71.22
69084;SHT31;56185;48.526;9.044;2023-08-31T19:38:10;17.69;72.19
69084;SHT31;56185;48.526;9.044;2023-08-31T19:40:36;17.79;71.31
69084;SHT31;56185;48.526;9.044;2023-08-31T19:43:01;17.73;71.60
69084;SHT31;56185;48.526;9.044;2023-08-31T19:45:29;17.62;72.28
69084;SHT31;56185;48.526;9.044;2023-08-31T19:47:54;17.66;72.14
69084;SHT31;56185;48.526;9.044;2023-08-31T19:50:20;17.67;72.04
69084;SHT31;56185;48.526;9.044;2023-08-31T19:52:45;17.57;73.19
69084;SHT31;56185;48.526;9.044;2023-08-31T19:55:11;17.54;73.71
69084;SHT31;56185;48.526;9.044;2023-08-31T19:57:36;17.74;72.62
69084;SHT31;56185;48.526;9.044;2023-08-31T20:00:02;17.73;71.58
69084;SHT31;56185;48.526;9.044;2023-08-31T20:02:27;17.84;71.40
69084;SHT31;56185;48.526;9.044;2023-08-31T20:04:53;17.84;72.33
69084;SHT31;56185;48.526;9.044;2023-08-31T20:07:18;17.87;72.27
69084;SHT31;56185;48.526;9.044;2023-08-31T20:09:43;17.83;72.63
69084;SHT31;56185;48.526;9.044;2023-08-31T20:12:08;17.79;72.75
69084;SHT31;56185;48.526;9.044;2023-08-31T20:14:34;17.73;73.11
69084;SHT31;56185;48.526;9.044;2023-08-31T20:16:59;17.74;73.21
69084;SHT31;56185;48.526;9.044;2023-08-31T20:19:25;17.77;72.83
69084;SHT31;56185;48.526;9.044;2023-08-31T20:21:50;17.74;73.07
69084;SHT31;56185;48.526;9.044;2023-08-31T20:24:17;17.56;74.05
69084;SHT31;56185;48.526;9.044;2023-08-31T20:26:42;17.60;73.69
69084;SHT31;56185;48.526;9.044;2023-08-31T20:29:08;17.63;73.79